Aeroporto :
LOGIN :

Iscrizione | Disclaimer

   EN    FR    IT 

 










Sommario :    VFR   VFR Marginale   IFR   IFR Intensivo   IFR Molto Intensivo
Visibilità : 
Base nubi : 
>= 8 km
>= 3000ft
5 / 8 km
1000 / 3000 ft
1500m / 5 km
500 / 1000 ft
800 / 1500m
200 / 500 ft
< 800m
< 200 ft
Simboli :   Temporali  Nebbia  Neve Forte  Precipitazioni Forti  Vento > 20 kt
SIGMETs :   Varie  Temporali  Ghiacco  Turbolenza  Onda orograficha  Ceneri Vulcaniche






- Altitudine del aeroporto : 249 ft


EGOS - RAF Shawbury

ULTIMO METAR :
  • 160750Z 21013KT 9999 FEW012 SCT250 05/02 Q0996 RMK BLU

METARs OBSOLETI :
  • 160650Z 21014KT CAVOK 05/02 Q0995 RMK BLU
  • 160550Z 21012KT CAVOK 05/02 Q0995 RMK BLU
  • 160450Z AUTO 19010KT 9999 NCD 04/02 Q0994

TAF TAF EGOS
Valido dal 16 a 07 ore il 16 a 15 ore UTC


160633Z 1607/1615 21012KT 9999 FEW020
PROB30
TEMPO 1607/1609 23012G22KT



MetMap, La meteo Aeronautica in un colpo d'occhio ! - Copyright ORBIFLY Dicembre 2007 - Disclaimer

ORBIFLY MET'MAP TEAM :

Programmazione e sviluppo : Alexandra Zaïnal
Concezione : Baudouin d'Aumeries
Aiuto per la programmazione : Marc-Olivier Méhu
Supporto tecnico e logistico : Manuel Goepfert
Aiuto per la traduzione : Arnaldo La Scala

Contatto : metmap@orbifly.com




FONTI E CREDITI :

   NOAA